createdAt,value
2023-06-11T00:01:34.371Z,39.78
2023-06-11T00:04:06.035Z,40.06
2023-06-11T00:06:37.772Z,40.38
2023-06-11T00:09:09.286Z,40.66
2023-06-11T00:11:40.819Z,40.73
2023-06-11T00:14:12.634Z,40.84
2023-06-11T00:16:44.409Z,41.28
2023-06-11T00:19:16.021Z,41.26
2023-06-11T00:21:47.515Z,41.43
2023-06-11T00:24:19.433Z,41.55
2023-06-11T00:26:51.082Z,41.81
2023-06-11T00:29:22.749Z,41.71
2023-06-11T00:31:54.303Z,42.06
2023-06-11T00:34:25.975Z,42.28
2023-06-11T00:36:57.476Z,42.56
2023-06-11T00:39:29.287Z,42.65
2023-06-11T00:42:00.840Z,42.79
2023-06-11T00:44:32.910Z,43.18
2023-06-11T00:47:04.719Z,43.57
2023-06-11T00:49:36.626Z,43.45
2023-06-11T00:52:08.401Z,43.54
2023-06-11T00:54:39.924Z,43.75
2023-06-11T00:57:11.746Z,43.99
2023-06-11T00:59:43.229Z,44.37
2023-06-11T01:02:14.911Z,44.27
2023-06-11T01:04:46.488Z,44.76
2023-06-11T01:07:18.402Z,44.85
2023-06-11T01:09:49.900Z,45.06
2023-06-11T01:12:21.754Z,45.19
2023-06-11T01:14:53.240Z,45.20
2023-06-11T01:17:25.248Z,45.15
2023-06-11T01:19:57.105Z,45.61
2023-06-11T01:22:28.964Z,45.71
2023-06-11T01:25:00.997Z,45.87
2023-06-11T01:27:32.489Z,45.89
2023-06-11T01:30:04.380Z,46.40
2023-06-11T01:32:35.929Z,46.45
2023-06-11T01:35:07.990Z,46.50
2023-06-11T01:37:39.771Z,46.64
2023-06-11T01:40:11.666Z,46.69
2023-06-11T01:42:43.195Z,46.51
2023-06-11T01:45:15.124Z,46.83
2023-06-11T01:47:46.697Z,46.91
2023-06-11T01:50:18.278Z,46.97
2023-06-11T01:52:50.168Z,47.33
2023-06-11T01:55:22.044Z,47.21
2023-06-11T01:57:54.011Z,47.28
2023-06-11T02:00:25.570Z,47.45
2023-06-11T02:02:57.950Z,47.62
2023-06-11T02:05:29.632Z,47.62
2023-06-11T02:08:01.581Z,48.12
2023-06-11T02:10:33.103Z,48.46
2023-06-11T02:13:04.920Z,48.20
2023-06-11T02:15:36.453Z,48.48
2023-06-11T02:18:08.468Z,48.64
2023-06-11T02:20:40.093Z,48.94
2023-06-11T02:23:11.817Z,48.68
2023-06-11T02:25:43.390Z,49.02
2023-06-11T02:28:15.103Z,49.12
2023-06-11T02:30:46.661Z,48.93
2023-06-11T02:33:18.605Z,49.37
2023-06-11T02:35:50.491Z,48.91
2023-06-11T02:38:22.020Z,49.08
2023-06-11T02:40:53.599Z,49.58
2023-06-11T02:43:25.123Z,49.58
2023-06-11T02:45:56.927Z,49.56
2023-06-11T02:48:28.521Z,49.98
2023-06-11T02:51:00.368Z,50.00
2023-06-11T02:53:31.882Z,49.95
2023-06-11T02:56:03.836Z,50.21
2023-06-11T02:58:35.419Z,50.07
2023-06-11T03:01:07.344Z,50.52
2023-06-11T03:03:38.951Z,50.29
2023-06-11T03:06:10.943Z,50.01
2023-06-11T03:08:42.802Z,50.51
2023-06-11T03:11:14.301Z,50.15
2023-06-11T03:13:46.205Z,50.79
2023-06-11T03:16:17.899Z,50.95
2023-06-11T03:18:49.737Z,50.38
2023-06-11T03:21:21.264Z,50.83
2023-06-11T03:23:53.284Z,50.36
2023-06-11T03:26:24.849Z,50.82
2023-06-11T03:28:56.846Z,50.61
2023-06-11T03:31:28.440Z,50.22
2023-06-11T03:34:00.379Z,50.16
2023-06-11T03:36:32.167Z,49.99
2023-06-11T03:39:04.193Z,50.39
2023-06-11T03:41:35.919Z,50.00
2023-06-11T03:44:07.440Z,49.82
2023-06-11T03:46:39.350Z,50.02
2023-06-11T03:49:10.933Z,49.85
2023-06-11T03:51:42.811Z,49.91
2023-06-11T03:54:14.350Z,49.86
2023-06-11T03:56:46.233Z,49.49
2023-06-11T03:59:17.783Z,49.29
2023-06-11T04:01:49.993Z,49.47
2023-06-11T04:04:21.576Z,49.57
2023-06-11T04:06:53.584Z,49.54
2023-06-11T04:09:25.357Z,49.25
2023-06-11T04:11:57.313Z,49.22
2023-06-11T04:14:29.194Z,48.89
2023-06-11T04:17:00.846Z,48.93
2023-06-11T04:19:32.893Z,49.12
2023-06-11T04:22:04.486Z,48.36
2023-06-11T04:24:36.558Z,47.96
2023-06-11T04:27:08.094Z,48.11
2023-06-11T04:29:39.945Z,48.15
2023-06-11T04:32:11.522Z,47.91
2023-06-11T04:34:43.196Z,47.78
2023-06-11T04:37:14.731Z,47.57
2023-06-11T04:39:46.609Z,47.56
2023-06-11T04:42:18.146Z,47.81
2023-06-11T04:44:50.032Z,47.53
2023-06-11T04:47:22.005Z,46.88
2023-06-11T04:49:53.545Z,47.28
2023-06-11T04:52:25.401Z,46.97
2023-06-11T04:54:56.949Z,46.54
2023-06-11T04:57:28.682Z,46.66
2023-06-11T05:00:00.236Z,46.68
2023-06-11T05:02:32.056Z,46.11
2023-06-11T05:05:03.657Z,46.08
2023-06-11T05:07:35.721Z,45.52
2023-06-11T05:10:07.318Z,45.59
2023-06-11T05:12:39.420Z,45.30
2023-06-11T05:15:11.174Z,44.73
2023-06-11T05:17:43.360Z,44.68
2023-06-11T05:20:14.943Z,44.36
2023-06-11T05:22:46.754Z,43.87
2023-06-11T05:25:18.537Z,43.51
2023-06-11T05:27:50.069Z,43.25
2023-06-11T05:30:21.837Z,43.09
2023-06-11T05:32:53.446Z,42.82
2023-06-11T05:35:25.203Z,42.77
2023-06-11T05:37:56.747Z,42.38
2023-06-11T05:40:28.628Z,42.32
2023-06-11T05:43:00.181Z,42.58
2023-06-11T05:45:32.330Z,42.30
2023-06-11T05:48:03.949Z,42.51
2023-06-11T05:50:35.862Z,42.11
2023-06-11T05:53:07.734Z,41.44
2023-06-11T05:55:39.481Z,40.88
2023-06-11T05:58:11.333Z,41.60
2023-06-11T06:00:42.887Z,40.71
2023-06-11T06:03:14.685Z,40.55
2023-06-11T06:05:46.302Z,40.40
2023-06-11T06:08:18.167Z,39.90
2023-06-11T06:10:49.711Z,39.46
2023-06-11T06:13:21.676Z,39.93
2023-06-11T06:15:53.247Z,39.92
2023-06-11T06:18:25.068Z,40.02
2023-06-11T06:20:56.627Z,39.44
2023-06-11T06:23:28.495Z,38.88
2023-06-11T06:26:00.065Z,38.63
2023-06-11T06:28:31.909Z,38.59
2023-06-11T06:31:03.631Z,38.41
2023-06-11T06:33:35.364Z,38.29
2023-06-11T06:36:07.113Z,39.21
2023-06-11T06:38:38.662Z,38.40
2023-06-11T06:41:10.385Z,37.89
2023-06-11T06:43:41.873Z,38.18
2023-06-11T06:46:13.733Z,37.43
2023-06-11T06:48:45.448Z,37.61
2023-06-11T06:51:17.239Z,36.72
2023-06-11T06:53:48.734Z,36.44
2023-06-11T06:56:20.492Z,36.84
2023-06-11T06:58:52.463Z,36.44
2023-06-11T07:01:24.308Z,36.84
2023-06-11T07:03:56.387Z,36.50
2023-06-11T07:06:27.898Z,36.64
2023-06-11T07:08:59.718Z,35.71
2023-06-11T07:11:31.218Z,36.30
2023-06-11T07:14:03.190Z,36.31
2023-06-11T07:16:34.768Z,35.75
2023-06-11T07:19:06.698Z,35.68
2023-06-11T07:21:38.337Z,36.26
2023-06-11T07:24:10.102Z,35.54
2023-06-11T07:26:41.676Z,35.34
2023-06-11T07:29:13.505Z,35.53
2023-06-11T07:31:45.368Z,35.00
2023-06-11T07:34:16.905Z,34.97
2023-06-11T07:36:48.847Z,35.30
2023-06-11T07:39:20.339Z,34.86
2023-06-11T07:41:52.157Z,35.10
2023-06-11T07:44:23.648Z,33.94
2023-06-11T07:46:55.478Z,34.05
2023-06-11T07:49:27.058Z,33.87
2023-06-11T07:51:58.893Z,33.90
2023-06-11T07:54:30.391Z,33.91
2023-06-11T07:57:01.923Z,35.17
2023-06-11T07:59:33.676Z,33.56
2023-06-11T08:02:05.475Z,33.51
2023-06-11T08:04:37.180Z,32.71
2023-06-11T08:07:08.696Z,33.86
2023-06-11T08:09:40.563Z,33.35
2023-06-11T08:12:12.083Z,33.01
2023-06-11T08:14:43.905Z,32.35
2023-06-11T08:17:15.400Z,33.49
2023-06-11T08:19:47.366Z,32.52
2023-06-11T08:22:18.876Z,32.24
2023-06-11T08:24:50.839Z,32.21
2023-06-11T08:27:22.658Z,31.97
2023-06-11T08:29:54.489Z,31.90
2023-06-11T08:32:26.688Z,32.31
2023-06-11T08:34:58.418Z,30.83
2023-06-11T08:37:30.537Z,31.45
2023-06-11T08:40:02.064Z,31.36
2023-06-11T08:42:33.935Z,31.87
2023-06-11T08:45:05.457Z,31.16
2023-06-11T08:47:37.155Z,31.16
2023-06-11T08:50:08.917Z,31.37
2023-06-11T08:52:40.891Z,31.79
2023-06-11T08:55:12.391Z,30.82
2023-06-11T08:57:44.166Z,30.91
2023-06-11T09:00:15.660Z,30.96
2023-06-11T09:02:47.594Z,30.58
2023-06-11T09:05:19.625Z,30.81
2023-06-11T09:07:51.129Z,30.97
2023-06-11T09:10:23.041Z,30.89
2023-06-11T09:12:56.802Z,30.14
2023-06-11T09:15:29.566Z,30.39
2023-06-11T09:18:01.159Z,30.54
2023-06-11T09:20:33.030Z,29.51
2023-06-11T09:23:04.538Z,30.07
2023-06-11T09:25:36.367Z,29.88
2023-06-11T09:28:07.845Z,29.17
2023-06-11T09:30:39.724Z,29.62
2023-06-11T09:33:11.667Z,30.47
2023-06-11T09:35:43.157Z,29.44
2023-06-11T09:38:15.019Z,28.97
2023-06-11T09:40:46.517Z,29.19
2023-06-11T09:43:18.284Z,28.67
2023-06-11T09:45:49.833Z,28.75
2023-06-11T09:48:21.795Z,29.27
2023-06-11T09:50:53.290Z,28.76
2023-06-11T09:53:25.153Z,28.97
2023-06-11T09:56:09.310Z,27.85
2023-06-11T09:58:42.819Z,28.33
2023-06-11T10:01:14.650Z,27.46
2023-06-11T10:03:46.216Z,27.75
2023-06-11T10:06:17.932Z,27.67
2023-06-11T10:08:49.443Z,26.84
2023-06-11T10:11:21.478Z,26.92
2023-06-11T10:13:52.959Z,27.37
2023-06-11T10:16:24.764Z,26.63
2023-06-11T10:18:56.322Z,27.70
2023-06-11T10:21:28.302Z,27.07
2023-06-11T10:24:00.029Z,26.05
2023-06-11T10:26:32.069Z,26.02
2023-06-11T10:29:06.303Z,26.75
2023-06-11T10:31:38.674Z,26.69
2023-06-11T10:34:10.561Z,26.10
2023-06-11T10:36:42.097Z,25.41
2023-06-11T10:39:13.926Z,26.10
2023-06-11T10:41:45.447Z,26.13
2023-06-11T10:44:17.272Z,26.09
2023-06-11T10:46:48.802Z,25.11
2023-06-11T10:49:20.669Z,25.66
2023-06-11T10:51:52.146Z,25.35
2023-06-11T10:54:24.106Z,25.50
2023-06-11T10:56:55.921Z,25.56
2023-06-11T10:59:27.755Z,25.57
2023-06-11T11:01:59.489Z,25.75
2023-06-11T11:04:31.112Z,25.44
2023-06-11T11:07:02.807Z,24.61
2023-06-11T11:09:34.307Z,24.75
2023-06-11T11:12:06.091Z,26.28
2023-06-11T11:14:37.608Z,26.50
2023-06-11T11:17:09.576Z,25.51
2023-06-11T11:19:41.148Z,25.79
2023-06-11T11:22:13.869Z,25.52
2023-06-11T11:24:45.382Z,25.80
2023-06-11T11:27:16.888Z,25.72
2023-06-11T11:29:48.707Z,24.87
2023-06-11T11:32:20.247Z,24.78
2023-06-11T11:34:52.081Z,25.20
2023-06-11T11:37:23.622Z,24.29
2023-06-11T11:39:55.544Z,24.22
2023-06-11T11:42:27.029Z,25.06
2023-06-11T11:44:58.876Z,23.91
2023-06-11T11:47:30.452Z,24.98
2023-06-11T11:50:02.322Z,24.15
2023-06-11T11:52:33.811Z,23.65
2023-06-11T11:55:05.723Z,23.85
2023-06-11T11:57:37.252Z,23.71
2023-06-11T12:00:08.851Z,23.62
2023-06-11T12:02:40.751Z,24.77
2023-06-11T12:05:12.304Z,24.60
2023-06-11T12:07:44.121Z,24.47
2023-06-11T12:10:15.747Z,25.72
2023-06-11T12:12:47.564Z,26.68
2023-06-11T12:15:19.081Z,27.53
2023-06-11T12:17:50.631Z,26.56
2023-06-11T12:20:22.179Z,24.49
2023-06-11T12:22:54.054Z,24.75
2023-06-11T12:25:26.160Z,26.14
2023-06-11T12:27:58.030Z,27.21
2023-06-11T12:30:29.984Z,28.28
2023-06-11T12:33:01.629Z,27.31
2023-06-11T12:35:33.539Z,24.73
2023-06-11T12:38:05.048Z,24.26
2023-06-11T12:40:37.101Z,24.24
2023-06-11T12:43:08.594Z,25.67
2023-06-11T12:45:40.363Z,23.97
2023-06-11T12:48:11.984Z,24.29
2023-06-11T12:50:44.102Z,24.18
2023-06-11T12:53:15.646Z,25.99
2023-06-11T12:55:47.626Z,26.54
2023-06-11T12:58:19.148Z,26.97
2023-06-11T13:00:50.676Z,28.49
2023-06-11T13:03:22.666Z,28.42
2023-06-11T13:05:54.168Z,26.33
2023-06-11T13:08:26.050Z,26.27
2023-06-11T13:10:57.548Z,26.60
2023-06-11T13:13:29.409Z,24.77
2023-06-11T13:16:00.931Z,25.15
2023-06-11T13:18:32.805Z,25.33
2023-06-11T13:21:04.302Z,25.13
2023-06-11T13:23:36.159Z,24.39
2023-06-11T13:26:07.685Z,22.45
2023-06-11T13:28:39.510Z,24.37
2023-06-11T13:31:11.061Z,23.83
2023-06-11T13:33:42.640Z,24.25
2023-06-11T13:36:14.342Z,24.74
2023-06-11T13:38:45.849Z,25.01
2023-06-11T13:41:17.720Z,24.40
2023-06-11T13:43:49.218Z,26.49
2023-06-11T13:46:21.100Z,26.70
2023-06-11T13:48:52.637Z,25.03
2023-06-11T13:51:24.646Z,24.00
2023-06-11T13:53:56.200Z,25.44
2023-06-11T13:56:27.830Z,23.90
2023-06-11T13:58:59.344Z,24.90
2023-06-11T14:01:31.168Z,25.62
2023-06-11T14:04:02.679Z,25.52
2023-06-11T14:06:34.508Z,27.35
2023-06-11T14:09:06.376Z,28.33
2023-06-11T14:11:38.213Z,27.45
2023-06-11T14:14:10.043Z,27.57
2023-06-11T14:16:41.603Z,27.89
2023-06-11T14:19:13.500Z,28.08
2023-06-11T14:21:45.000Z,28.20
2023-06-11T14:24:17.093Z,27.26
2023-06-11T14:26:48.645Z,24.72
2023-06-11T14:29:20.363Z,24.90
2023-06-11T14:31:51.933Z,24.98
2023-06-11T14:34:23.919Z,25.48
2023-06-11T14:36:55.409Z,25.52
2023-06-11T14:39:27.140Z,25.65
2023-06-11T14:41:59.020Z,24.71
2023-06-11T14:44:31.062Z,23.80
2023-06-11T14:47:02.949Z,23.34
2023-06-11T14:49:34.434Z,22.39
2023-06-11T14:52:06.247Z,22.30
2023-06-11T14:54:37.773Z,21.91
2023-06-11T14:57:09.626Z,21.56
2023-06-11T14:59:41.143Z,23.19
2023-06-11T15:02:13.014Z,23.52
2023-06-11T15:04:44.553Z,23.41
2023-06-11T15:07:29.784Z,22.94
2023-06-11T15:10:06.042Z,22.76
2023-06-11T15:12:38.043Z,22.83
2023-06-11T15:15:09.768Z,22.92
2023-06-11T15:17:41.295Z,24.55
2023-06-11T15:20:13.322Z,26.13
2023-06-11T15:22:45.086Z,26.51
2023-06-11T15:25:16.967Z,26.71
2023-06-11T15:27:48.494Z,27.05
2023-06-11T15:30:20.159Z,27.32
2023-06-11T15:32:51.699Z,27.57
2023-06-11T15:35:23.657Z,27.07
2023-06-11T15:37:55.163Z,25.41
2023-06-11T15:40:27.001Z,24.10
2023-06-11T15:42:58.849Z,24.02
2023-06-11T15:45:30.697Z,24.39
2023-06-11T15:48:02.386Z,25.07
2023-06-11T15:50:33.974Z,23.80
2023-06-11T15:53:05.964Z,22.90
2023-06-11T15:55:37.472Z,23.17
2023-06-11T15:58:09.316Z,22.34
2023-06-11T16:00:40.805Z,22.50
2023-06-11T16:03:12.726Z,23.05
2023-06-11T16:05:44.237Z,22.76
2023-06-11T16:08:16.121Z,22.58
2023-06-11T16:10:47.647Z,23.38
2023-06-11T16:13:19.543Z,24.78
2023-06-11T16:15:51.270Z,24.58
2023-06-11T16:18:22.855Z,24.12
2023-06-11T16:20:54.711Z,24.68
2023-06-11T16:23:26.202Z,25.29
2023-06-11T16:25:58.096Z,25.59
2023-06-11T16:28:29.615Z,25.57
2023-06-11T16:31:01.624Z,26.13
2023-06-11T16:33:47.637Z,26.76
2023-06-11T16:36:24.976Z,27.22
2023-06-11T16:39:01.226Z,27.47
2023-06-11T16:41:38.351Z,27.79
2023-06-11T16:44:10.212Z,27.16
2023-06-11T16:46:41.873Z,27.32
2023-06-11T16:49:13.851Z,27.33
2023-06-11T16:51:45.387Z,26.94
2023-06-11T16:54:18.918Z,27.55
2023-06-11T16:56:50.841Z,27.24
2023-06-11T16:59:22.620Z,27.79
2023-06-11T17:01:54.131Z,27.42
2023-06-11T17:04:26.034Z,27.65
2023-06-11T17:06:58.106Z,28.01
2023-06-11T17:09:29.944Z,27.80
2023-06-11T17:12:01.821Z,28.19
2023-06-11T17:14:33.367Z,28.61
2023-06-11T17:17:05.343Z,28.62
2023-06-11T17:19:36.968Z,28.96
2023-06-11T17:22:08.769Z,29.16
2023-06-11T17:24:40.374Z,29.00
2023-06-11T17:27:12.542Z,29.10
2023-06-11T17:29:44.049Z,29.10
2023-06-11T17:32:15.866Z,29.17
2023-06-11T17:34:47.406Z,29.44
2023-06-11T17:37:19.111Z,29.93
2023-06-11T17:39:50.638Z,29.59
2023-06-11T17:42:22.490Z,30.00
2023-06-11T17:44:54.284Z,30.34
2023-06-11T17:47:26.189Z,30.56
2023-06-11T17:49:58.035Z,30.38
2023-06-11T17:52:29.588Z,30.55
2023-06-11T17:55:01.618Z,30.67
2023-06-11T17:57:33.110Z,30.51
2023-06-11T18:00:04.859Z,30.59
2023-06-11T18:02:36.361Z,30.81
2023-06-11T18:05:08.510Z,30.43
2023-06-11T18:07:40.140Z,31.03
2023-06-11T18:10:11.981Z,30.77
2023-06-11T18:12:43.470Z,30.92
2023-06-11T18:17:49.799Z,30.94
2023-06-11T18:20:21.779Z,31.40
2023-06-11T18:22:53.261Z,31.48
2023-06-11T18:25:25.254Z,31.09
2023-06-11T18:27:57.109Z,31.38
2023-06-11T18:30:29.057Z,31.16
2023-06-11T18:33:00.903Z,31.20
2023-06-11T18:35:32.451Z,30.95
2023-06-11T18:38:04.244Z,31.44
2023-06-11T18:40:35.748Z,30.88
2023-06-11T18:43:07.278Z,31.32
2023-06-11T18:45:38.869Z,31.37
2023-06-11T18:48:10.849Z,31.32
2023-06-11T18:50:42.352Z,31.85
2023-06-11T18:53:14.310Z,31.84
2023-06-11T18:55:45.798Z,32.08
2023-06-11T18:58:18.443Z,32.61
2023-06-11T19:00:50.192Z,32.41
2023-06-11T19:03:21.823Z,32.29
2023-06-11T19:05:53.837Z,32.50
2023-06-11T19:08:25.367Z,32.82
2023-06-11T19:10:57.294Z,33.05
2023-06-11T19:13:28.799Z,32.97
2023-06-11T19:16:00.802Z,33.10
2023-06-11T19:18:32.301Z,33.64
2023-06-11T19:21:04.137Z,33.87
2023-06-11T19:23:35.632Z,33.88
2023-06-11T19:26:08.670Z,33.90
2023-06-11T19:28:40.165Z,34.25
2023-06-11T19:31:11.944Z,34.57
2023-06-11T19:33:43.549Z,34.90
2023-06-11T19:36:15.147Z,34.74
2023-06-11T19:38:46.706Z,35.13
2023-06-11T19:41:18.285Z,35.32
2023-06-11T19:43:50.122Z,35.48
2023-06-11T19:46:23.992Z,35.61
2023-06-11T19:48:57.434Z,35.55
2023-06-11T19:51:28.988Z,36.02
2023-06-11T19:54:00.526Z,36.16
2023-06-11T19:56:32.059Z,36.41
2023-06-11T19:59:03.848Z,36.62
2023-06-11T20:01:35.584Z,36.93
2023-06-11T20:04:07.586Z,38.00
2023-06-11T20:06:39.510Z,38.72
2023-06-11T20:09:11.115Z,37.83
2023-06-11T20:11:43.039Z,38.58
2023-06-11T20:14:14.575Z,37.68
2023-06-11T20:16:46.580Z,38.45
2023-06-11T20:19:18.295Z,38.43
2023-06-11T20:21:50.140Z,38.69
2023-06-11T20:24:21.758Z,38.68
2023-06-11T20:26:53.758Z,38.99
2023-06-11T20:29:25.777Z,38.55
2023-06-11T20:31:57.660Z,38.77
2023-06-11T20:34:29.481Z,39.32
2023-06-11T20:37:01.013Z,39.55
2023-06-11T20:39:33.066Z,39.25
2023-06-11T20:42:04.782Z,39.49
2023-06-11T20:44:36.800Z,40.21
2023-06-11T20:47:08.380Z,39.32
2023-06-11T20:49:40.502Z,39.67
2023-06-11T20:52:13.123Z,39.70
2023-06-11T20:54:44.939Z,40.00
2023-06-11T20:57:16.504Z,40.23
2023-06-11T20:59:48.490Z,40.15
2023-06-11T21:02:20.435Z,39.90
2023-06-11T21:04:52.410Z,40.73
2023-06-11T21:07:24.352Z,39.98
2023-06-11T21:09:55.848Z,39.79
2023-06-11T21:12:27.699Z,39.90
2023-06-11T21:14:59.207Z,39.59
2023-06-11T21:17:31.129Z,39.78
2023-06-11T21:20:02.664Z,39.68
2023-06-11T21:22:34.177Z,39.41
2023-06-11T21:25:05.674Z,39.61
2023-06-11T21:27:37.590Z,39.75
2023-06-11T21:30:09.200Z,39.88
2023-06-11T21:32:41.128Z,39.99
2023-06-11T21:35:13.128Z,40.05
2023-06-11T21:37:44.927Z,39.98
2023-06-11T21:40:16.943Z,40.57
2023-06-11T21:42:48.671Z,40.60
2023-06-11T21:45:20.611Z,40.35
2023-06-11T21:47:52.152Z,40.32
2023-06-11T21:50:24.004Z,40.68
2023-06-11T21:52:55.490Z,40.86
2023-06-11T21:55:27.370Z,40.62
2023-06-11T21:57:58.888Z,40.59
2023-06-11T22:00:30.439Z,41.51
2023-06-11T22:03:02.071Z,41.19
2023-06-11T22:05:33.853Z,41.12
2023-06-11T22:08:05.808Z,40.97
2023-06-11T22:10:37.782Z,41.25
2023-06-11T22:13:09.649Z,41.22
2023-06-11T22:15:41.195Z,41.23
2023-06-11T22:18:13.075Z,42.02
2023-06-11T22:20:44.742Z,42.02
2023-06-11T22:23:16.594Z,41.91
2023-06-11T22:25:48.126Z,41.99
2023-06-11T22:28:20.098Z,42.53
2023-06-11T22:30:56.821Z,42.42
2023-06-11T22:33:29.218Z,42.27
2023-06-11T22:36:00.722Z,42.85
2023-06-11T22:38:32.627Z,42.19
2023-06-11T22:41:04.237Z,42.60
2023-06-11T22:43:36.071Z,42.12
2023-06-11T22:46:07.892Z,42.22
2023-06-11T22:48:39.410Z,42.22
2023-06-11T22:51:11.351Z,42.36
2023-06-11T22:53:42.863Z,42.43
2023-06-11T22:56:14.625Z,42.84
2023-06-11T22:58:46.134Z,43.16
2023-06-11T23:01:18.025Z,42.74
2023-06-11T23:03:49.520Z,42.58
2023-06-11T23:06:21.398Z,42.56
2023-06-11T23:08:52.920Z,42.83
2023-06-11T23:11:24.729Z,43.17
2023-06-11T23:13:56.580Z,42.65
2023-06-11T23:16:28.453Z,43.18
2023-06-11T23:19:00.531Z,43.41
2023-06-11T23:21:32.082Z,43.02
2023-06-11T23:24:04.029Z,42.99
2023-06-11T23:26:35.557Z,42.96
2023-06-11T23:29:07.235Z,43.20
2023-06-11T23:31:38.780Z,43.73
2023-06-11T23:34:10.603Z,43.10
2023-06-11T23:36:42.093Z,42.93
2023-06-11T23:39:13.955Z,43.10
2023-06-11T23:41:45.444Z,43.38
2023-06-11T23:44:17.320Z,44.15
2023-06-11T23:46:48.894Z,43.44
2023-06-11T23:49:20.697Z,43.67
2023-06-11T23:51:52.512Z,43.79
2023-06-11T23:54:24.001Z,43.58
2023-06-11T23:56:55.838Z,43.51
2023-06-11T23:59:27.332Z,43.82
